White Oak, Ohio
Current Conditions -  °F | °C
As of 6:55 PM on Friday 24 Oct 2014 (Local Time) from KI67 Reporting Station
Clear Clear  
Wind Chill: 61°   Ceiling: Unl
Heat Index: 61°   Visibility: 10mi
Dew Point: 37°   Wind: 0mph
Humidity: 42%   Direction: NA
Pressure: 30.02"   Gusts: NA
Location:  39.2201°N, 84.6531°W
Report Text: KI67 242255Z AUTO 00000KT 10SM CLR 16/03 A3002 RMK AO1
Loading
Personal Weather Stations






























Interactive Weather Map New forecast layout! Learn more

10-Day Weather Forecast

Advertisements
Track Severe Weather on mobile